Time;durP1;ratioP1;P1;durP2;ratioP2;P2;SDS_P1;SDS_P2;PMS_P1;PMS_P2;Temp;Humidity;BMP_temperature;BMP_pressure;BME280_temperature;BME280_humidity;BME280_pressure;Samples;Min_cycle;Max_cycle;Signal;HPM_P1;HPM_P2
2021/09/23 00:01:09;;;;;;;16.40;11.23;;;9.70;67.70;;;;;;4863572;29;20444;-91
2021/09/23 00:07:02;;;;;;;18.17;11.00;;;9.60;67.80;;;;;;4863254;29;20128;-92
2021/09/23 00:12:51;;;;;;;16.15;12.30;;;9.50;68.10;;;;;;4863331;29;20093;-92
2021/09/23 00:18:41;;;;;;;18.23;13.10;;;9.50;68.30;;;;;;4863361;29;20036;-92
2021/09/23 00:24:29;;;;;;;18.80;13.43;;;9.40;68.40;;;;;;4863208;29;20044;-92
2021/09/23 00:34:20;;;;;;;19.08;13.73;;;9.30;68.70;;;;;;4862926;29;20455;-91
2021/09/23 00:40:09;;;;;;;20.60;15.45;;;9.30;68.90;;;;;;4862464;29;20039;-91
2021/09/23 00:45:59;;;;;;;22.70;15.50;;;9.20;69.10;;;;;;4862335;29;20036;-91
2021/09/23 00:51:47;;;;;;;22.45;15.57;;;9.20;69.30;;;;;;4862645;29;20080;-92
2021/09/23 00:57:37;;;;;;;18.48;12.25;;;9.20;69.50;;;;;;4862756;29;20044;-92
2021/09/23 01:03:25;;;;;;;17.45;11.32;;;9.10;69.70;;;;;;4862535;29;20032;-91
2021/09/23 01:09:28;;;;;;;18.48;11.52;;;9.10;69.80;;;;;;4862667;29;20048;-92
2021/09/23 01:15:18;;;;;;;17.63;11.07;;;9.10;69.90;;;;;;4862318;29;20040;-92
2021/09/23 01:21:09;;;;;;;16.38;11.00;;;9.00;70.00;;;;;;4862353;29;20060;-92
2021/09/23 01:27:02;;;;;;;18.52;11.02;;;9.00;70.20;;;;;;4862552;29;20097;-93
2021/09/23 01:36:40;;;;;;;21.27;12.00;;;8.90;70.40;;;;;;4861994;29;20168;-93
2021/09/23 01:42:29;;;;;;;19.23;12.90;;;8.90;70.60;;;;;;4862209;29;20111;-92
2021/09/23 01:48:18;;;;;;;21.60;14.20;;;8.80;70.60;;;;;;4862124;29;20039;-93
2021/09/23 01:54:08;;;;;;;28.02;17.55;;;8.80;70.80;;;;;;4862260;29;20410;-93
2021/09/23 01:59:57;;;;;;;29.85;20.92;;;8.70;70.80;;;;;;4862279;29;20056;-93
2021/09/23 02:05:47;;;;;;;27.48;19.15;;;8.70;71.00;;;;;;4863901;29;20109;-93
2021/09/23 02:11:36;;;;;;;25.83;19.77;;;8.60;71.00;;;;;;4865809;29;20409;-93
2021/09/23 02:17:24;;;;;;;29.42;21.75;;;8.60;71.30;;;;;;4865756;29;20398;-93
2021/09/23 02:23:13;;;;;;;33.22;21.98;;;8.50;71.40;;;;;;4865166;29;20036;-92
2021/09/23 02:29:01;;;;;;;30.48;21.67;;;8.50;71.50;;;;;;4865610;29;20121;-93
2021/09/23 02:38:46;;;;;;;28.13;18.40;;;8.40;71.50;;;;;;4865249;29;20418;-92
2021/09/23 02:44:34;;;;;;;27.65;17.65;;;8.30;71.70;;;;;;4865306;29;20089;-92
2021/09/23 02:50:23;;;;;;;25.67;16.52;;;8.30;71.70;;;;;;4865124;29;20037;-93
2021/09/23 02:56:12;;;;;;;23.92;14.15;;;8.30;72.00;;;;;;4865134;29;20512;-93
2021/09/23 03:02:02;;;;;;;21.05;14.20;;;8.30;72.30;;;;;;4865005;29;20048;-92
2021/09/23 03:07:50;;;;;;;24.50;14.93;;;8.30;72.40;;;;;;4864872;29;20459;-93
2021/09/23 03:13:39;;;;;;;22.70;15.07;;;8.20;72.10;;;;;;4865372;29;20094;-93
2021/09/23 03:19:28;;;;;;;26.02;16.95;;;8.20;72.30;;;;;;4864589;29;20036;-92
2021/09/23 03:25:17;;;;;;;29.38;18.50;;;8.10;72.30;;;;;;4864760;29;20040;-93
2021/09/23 03:31:06;;;;;;;23.80;16.75;;;8.10;72.40;;;;;;4864131;29;20124;-91
2021/09/23 03:40:50;;;;;;;32.83;20.88;;;8.00;72.50;;;;;;4863613;29;20048;-91
2021/09/23 03:46:38;;;;;;;39.63;26.35;;;7.90;72.80;;;;;;4863585;29;20539;-91
2021/09/23 03:52:28;;;;;;;34.17;24.08;;;7.90;72.70;;;;;;4863199;29;20460;-91
2021/09/23 03:58:17;;;;;;;38.17;26.52;;;7.80;72.80;;;;;;4863752;29;20168;-90
2021/09/23 04:04:30;;;;;;;43.55;27.83;;;7.80;72.90;;;;;;4863211;29;20525;-90
2021/09/23 04:10:22;;;;;;;45.47;28.20;;;7.80;73.10;;;;;;4863051;29;20161;-90
2021/09/23 04:16:12;;;;;;;42.15;27.42;;;7.80;73.10;;;;;;4863239;29;20067;-90
2021/09/23 04:22:09;;;;;;;42.50;26.92;;;7.70;73.10;;;;;;4863041;29;20435;-91
2021/09/23 04:27:59;;;;;;;41.85;27.77;;;7.70;73.10;;;;;;4863658;29;20062;-91
2021/09/23 04:33:48;;;;;;;40.92;26.58;;;7.60;73.40;;;;;;4862888;29;20395;-90
2021/09/23 04:44:03;;;;;;;42.65;28.73;;;7.60;73.20;;;;;;4862691;29;20145;-90
2021/09/23 04:49:52;;;;;;;33.70;20.75;;;7.50;73.40;;;;;;4862481;29;20032;-90
2021/09/23 04:55:40;;;;;;;29.90;16.83;;;7.50;73.60;;;;;;4862426;29;20044;-90
2021/09/23 05:01:30;;;;;;;34.15;19.52;;;7.50;73.70;;;;;;4862161;29;20041;-90
2021/09/23 05:07:19;;;;;;;31.58;18.33;;;7.50;73.70;;;;;;4861883;29;20031;-91
2021/09/23 05:13:08;;;;;;;28.23;18.27;;;7.50;73.80;;;;;;4862134;29;20406;-90
2021/09/23 05:19:03;;;;;;;30.85;18.58;;;7.50;74.10;;;;;;4863753;29;20119;-93
2021/09/23 05:24:51;;;;;;;31.65;20.40;;;7.60;74.20;;;;;;4861945;29;20028;-87
2021/09/23 05:30:40;;;;;;;32.13;20.38;;;7.60;74.20;;;;;;4862079;29;20044;-88
2021/09/23 05:36:29;;;;;;;35.25;19.92;;;7.70;74.60;;;;;;4861661;29;20127;-88
2021/09/23 05:46:20;;;;;;;32.58;20.25;;;7.90;74.60;;;;;;4861771;29;20152;-89
2021/09/23 05:52:10;;;;;;;29.88;18.95;;;8.00;74.70;;;;;;4861262;29;20098;-87
2021/09/23 06:40:42;;;;;;;35.78;21.92;;;9.20;75.50;;;;;;4856920;29;20029;-95
2021/09/23 06:46:32;;;;;;;29.33;17.88;;;9.50;75.80;;;;;;4847599;29;20088;-94
2021/09/23 06:59:10;;;;;;;30.10;17.55;;;9.90;75.60;;;;;;4846443;29;20053;-92
2021/09/23 07:05:09;;;;;;;24.55;16.00;;;10.00;75.70;;;;;;4848367;29;20065;-95
2021/09/23 07:10:59;;;;;;;23.50;14.23;;;10.20;76.10;;;;;;4852344;29;20044;-91
2021/09/23 07:16:48;;;;;;;24.42;15.30;;;10.50;76.30;;;;;;4849425;29;20090;-93
2021/09/23 07:29:21;;;;;;;23.02;13.90;;;11.00;76.10;;;;;;4798997;29;20045;-93
2021/09/23 07:35:11;;;;;;;18.88;11.88;;;11.20;76.50;;;;;;4846987;29;20579;-94
2021/09/23 07:47:38;;;;;;;17.30;11.32;;;11.80;76.20;;;;;;4792481;29;20111;-94
2021/09/23 07:53:28;;;;;;;19.30;10.88;;;12.00;76.30;;;;;;4846293;29;20110;-95
2021/09/23 07:59:16;;;;;;;16.00;9.65;;;12.30;76.50;;;;;;4846373;29;20037;-93
2021/09/23 08:05:14;;;;;;;18.15;9.35;;;12.60;76.30;;;;;;4845708;29;20115;-96
2021/09/23 08:11:04;;;;;;;13.07;8.60;;;12.90;76.80;;;;;;4861670;29;20071;-94
2021/09/23 08:16:54;;;;;;;14.18;7.97;;;13.20;76.40;;;;;;4847135;29;20048;-95
2021/09/23 08:22:45;;;;;;;12.95;7.18;;;13.50;76.10;;;;;;4857787;29;20112;-96
2021/09/23 08:28:37;;;;;;;13.30;6.35;;;13.70;76.10;;;;;;4852824;29;20384;-95
2021/09/23 08:34:36;;;;;;;11.25;5.90;;;14.00;76.10;;;;;;4861398;29;20514;-95
2021/09/23 08:40:40;;;;;;;12.32;5.57;;;14.40;76.20;;;;;;4844885;29;20501;-94
2021/09/23 08:46:33;;;;;;;10.88;4.68;;;14.80;76.20;;;;;;4846802;29;20049;-93
2021/09/23 08:52:23;;;;;;;10.27;4.45;;;15.20;75.70;;;;;;4845833;29;20406;-93
2021/09/23 08:58:18;;;;;;;9.13;4.20;;;15.50;75.30;;;;;;4844878;29;20162;-93
2021/09/23 09:04:07;;;;;;;11.00;3.78;;;15.90;74.70;;;;;;4844094;29;20084;-93
2021/09/23 09:10:08;;;;;;;9.10;3.55;;;16.20;74.70;;;;;;4844170;29;20029;-96
2021/09/23 09:16:30;;;;;;;10.75;3.92;;;16.70;74.00;;;;;;4849893;29;20037;-95
2021/09/23 09:22:24;;;;;;;8.18;3.15;;;17.10;73.30;;;;;;4844612;29;20036;-93
2021/09/23 09:28:17;;;;;;;9.27;4.13;;;17.60;72.60;;;;;;4849350;29;20510;-94
2021/09/23 09:34:06;;;;;;;9.95;3.70;;;18.00;71.80;;;;;;4843703;29;20098;-94
2021/09/23 09:39:58;;;;;;;9.93;3.38;;;18.40;71.30;;;;;;4844695;29;20069;-96
2021/09/23 10:36:51;;;;;;;5.97;2.30;;;26.40;65.30;;;;;;4890679;23;20073;-89
2021/09/23 10:42:59;;;;;;;5.70;2.25;;;28.00;62.90;;;;;;4846114;29;20037;-91
2021/09/23 10:48:48;;;;;;;5.40;2.33;;;29.10;58.30;;;;;;4846032;29;20032;-90
2021/09/23 10:54:39;;;;;;;4.05;2.25;;;30.00;55.90;;;;;;4846024;29;20045;-93
2021/09/23 11:00:32;;;;;;;4.90;2.10;;;30.90;54.20;;;;;;4845706;29;20199;-90
2021/09/23 11:06:39;;;;;;;4.10;2.30;;;31.70;51.70;;;;;;4846375;29;20094;-91
2021/09/23 11:12:29;;;;;;;3.67;2.00;;;32.50;48.00;;;;;;4845453;29;20121;-91
2021/09/23 11:18:23;;;;;;;5.18;2.28;;;33.10;47.10;;;;;;4845436;29;20072;-89
2021/09/23 11:24:13;;;;;;;4.30;2.10;;;33.80;45.50;;;;;;4846818;29;20133;-95
2021/09/23 11:30:03;;;;;;;5.47;2.30;;;34.20;42.80;;;;;;4846896;29;20041;-93
2021/09/23 11:45:27;;;;;;;3.78;2.35;;;35.10;38.60;;;;;;4288355;23;20061;-90
2021/09/23 11:58:28;;;;;;;4.43;2.10;;;35.90;34.40;;;;;;4788582;30;20142;-90
2021/09/23 12:07:45;;;;;;;5.38;2.30;;;36.80;35.00;;;;;;4830207;23;20056;-91
2021/09/23 12:14:21;;;;;;;5.70;2.35;;;37.30;33.30;;;;;;4883030;29;20109;-89
2021/09/23 12:20:09;;;;;;;5.55;2.60;;;37.60;30.90;;;;;;4881631;29;20032;-91
2021/09/23 12:33:28;;;;;;;;;;;;;;;;;;;;;
2021/09/23 12:39:36;;;;;;;4.47;2.40;;;37.80;28.70;;;;;;4880881;29;20085;-90
2021/09/23 13:38:58;;;;;;;3.63;2.25;;;38.90;26.00;;;;;;4862577;29;20041;-89
2021/09/23 13:44:50;;;;;;;4.32;2.50;;;39.10;25.30;;;;;;4861686;29;20037;-90
2021/09/23 13:50:41;;;;;;;3.28;2.15;;;39.20;25.10;;;;;;4861450;29;20398;-88
2021/09/23 17:48:00;;;;;;;8.98;3.30;;;22.00;34.50;;;;;;4872041;29;20048;-96
2021/09/23 17:54:01;;;;;;;9.02;3.90;;;21.60;35.10;;;;;;4874876;29;20081;-96
2021/09/23 18:00:01;;;;;;;8.63;4.03;;;21.30;35.70;;;;;;4876568;29;20108;-95
2021/09/23 18:05:51;;;;;;;9.30;4.68;;;20.90;36.50;;;;;;4870325;29;20062;-91
2021/09/23 18:11:38;;;;;;;10.00;5.03;;;20.60;37.70;;;;;;4869616;29;20064;-91
2021/09/23 18:17:37;;;;;;;7.85;3.70;;;20.40;38.10;;;;;;4875312;29;20040;-94
2021/09/23 18:23:46;;;;;;;9.50;3.88;;;20.20;38.60;;;;;;4879350;29;20017;-96
2021/09/23 18:36:12;;;;;;;9.25;4.38;;;19.70;40.40;;;;;;4879992;29;20044;-96
2021/09/23 18:42:04;;;;;;;9.80;3.50;;;19.50;41.30;;;;;;4877610;29;20101;-95
2021/09/23 18:47:53;;;;;;;7.20;3.47;;;19.40;42.10;;;;;;4857880;29;20044;-93
2021/09/23 18:53:45;;;;;;;7.55;3.60;;;19.30;42.80;;;;;;4860000;29;20049;-95
2021/09/23 18:59:35;;;;;;;10.55;5.80;;;19.20;43.30;;;;;;4859254;29;20098;-96
2021/09/23 19:05:23;;;;;;;9.00;4.90;;;19.00;43.70;;;;;;4858559;29;20033;-94
2021/09/23 19:11:12;;;;;;;10.77;5.38;;;18.80;44.20;;;;;;4859251;29;20054;-95
2021/09/23 19:17:04;;;;;;;10.30;4.97;;;18.60;44.90;;;;;;4856005;29;20040;-95
2021/09/23 19:22:54;;;;;;;8.90;4.20;;;18.50;45.30;;;;;;4861430;29;20037;-94
2021/09/23 19:28:46;;;;;;;20.17;14.63;;;18.40;46.40;;;;;;4861619;29;20063;-96
2021/09/23 19:34:40;;;;;;;6.03;3.20;;;18.50;47.20;;;;;;4862421;29;20087;-95
2021/09/23 19:40:34;;;;;;;6.47;3.35;;;18.50;47.60;;;;;;4859165;29;20122;-96
2021/09/23 19:50:31;;;;;;;6.70;3.30;;;18.60;48.20;;;;;;4872995;29;20092;-96
2021/09/23 19:56:22;;;;;;;6.85;3.33;;;18.50;48.80;;;;;;4882749;29;20076;-95
2021/09/23 20:02:14;;;;;;;8.98;3.50;;;18.50;49.10;;;;;;4874442;29;20090;-96
2021/09/23 20:08:05;;;;;;;7.20;3.70;;;18.50;49.60;;;;;;4878340;29;20044;-96
2021/09/23 20:13:56;;;;;;;6.97;3.47;;;18.40;50.00;;;;;;4873647;29;20414;-92
2021/09/23 20:19:47;;;;;;;7.60;3.40;;;18.40;50.70;;;;;;4870030;29;20049;-96
2021/09/23 20:25:37;;;;;;;7.90;3.40;;;18.40;51.30;;;;;;4872730;29;20037;-96
2021/09/23 20:31:25;;;;;;;7.72;3.80;;;18.30;51.40;;;;;;4865222;29;20398;-94
2021/09/23 20:37:15;;;;;;;7.88;3.83;;;18.30;51.80;;;;;;4866135;29;20036;-94
2021/09/23 20:43:03;;;;;;;9.80;3.92;;;18.20;52.10;;;;;;4865647;29;20501;-94
2021/09/23 20:52:53;;;;;;;8.82;3.70;;;18.20;52.80;;;;;;4863250;29;20072;-95
2021/09/23 21:04:40;;;;;;;7.80;3.75;;;18.10;54.00;;;;;;4863431;29;20040;-96
2021/09/23 21:10:33;;;;;;;8.73;3.63;;;18.00;54.30;;;;;;4863418;29;20078;-96
2021/09/23 21:16:24;;;;;;;7.75;3.85;;;18.00;55.10;;;;;;4864980;29;20040;-96
2021/09/23 21:22:13;;;;;;;8.00;3.70;;;18.00;55.20;;;;;;4863294;29;20062;-95
2021/09/23 21:28:02;;;;;;;8.27;3.80;;;17.90;55.50;;;;;;4864334;29;20105;-95
2021/09/23 21:33:52;;;;;;;7.72;3.85;;;17.90;56.00;;;;;;4863322;29;20101;-96
2021/09/23 21:39:42;;;;;;;8.13;3.58;;;17.80;56.00;;;;;;4862719;29;20482;-95
2021/09/23 21:45:31;;;;;;;9.13;3.80;;;17.70;56.10;;;;;;4863004;29;20385;-94
2021/09/23 21:55:23;;;;;;;10.55;3.88;;;17.60;56.40;;;;;;4862695;29;20104;-95
2021/09/23 22:01:12;;;;;;;7.40;3.72;;;17.50;56.80;;;;;;4862387;29;20427;-96
2021/09/23 22:07:01;;;;;;;8.45;4.03;;;17.50;57.10;;;;;;4862524;29;20071;-95
2021/09/23 22:12:49;;;;;;;7.90;3.70;;;17.40;56.80;;;;;;4862079;29;20469;-95
2021/09/23 22:18:39;;;;;;;8.40;4.13;;;17.30;57.50;;;;;;4862339;29;20033;-95
2021/09/23 22:24:29;;;;;;;7.78;3.60;;;17.30;57.70;;;;;;4866198;29;20087;-96
2021/09/23 22:30:19;;;;;;;7.35;3.50;;;17.40;58.10;;;;;;4865548;29;20035;-95
2021/09/23 22:36:07;;;;;;;7.15;3.78;;;17.50;58.60;;;;;;4865842;29;20033;-95
2021/09/23 22:41:56;;;;;;;8.18;4.18;;;17.50;58.30;;;;;;4865817;29;20097;-95
2021/09/23 22:47:44;;;;;;;9.65;3.95;;;17.40;58.50;;;;;;4865348;29;20177;-94
2021/09/23 22:57:27;;;;;;;6.85;3.58;;;17.40;58.50;;;;;;4865431;29;20093;-96
2021/09/23 23:03:15;;;;;;;8.45;3.85;;;17.30;58.50;;;;;;4865457;29;20081;-96
2021/09/23 23:09:05;;;;;;;10.27;4.43;;;17.20;59.00;;;;;;4865256;29;20032;-96
2021/09/23 23:14:54;;;;;;;8.20;4.43;;;17.30;59.40;;;;;;4865494;29;20539;-94
2021/09/23 23:20:44;;;;;;;10.40;4.05;;;17.20;59.60;;;;;;4864989;29;20033;-95
2021/09/23 23:26:33;;;;;;;8.38;4.00;;;17.20;59.70;;;;;;4864557;29;20041;-95
2021/09/23 23:32:21;;;;;;;7.55;4.00;;;17.20;59.80;;;;;;4864374;29;20056;-95
2021/09/23 23:38:10;;;;;;;8.38;3.53;;;17.10;60.00;;;;;;4864519;29;20069;-96
2021/09/23 23:44:00;;;;;;;8.43;3.67;;;17.00;60.00;;;;;;4864249;29;20082;-94
2021/09/23 23:49:48;;;;;;;10.68;4.00;;;17.00;60.40;;;;;;4864220;29;20053;-96
2021/09/23 23:59:32;;;;;;;8.88;4.18;;;16.80;60.40;;;;;;4864306;29;20036;-96
